Johnson County (6A4)
Johnson County, TN
Field Elevation: 2240
Lat: 36°25.07N  Long: 81°49.51W
CTAF/Unicom Freq: 122.7000
   
    
Weather Advisories
10/20/2014 04:19 Z
Altimeter 30.16" Hg
Wind 060° @ 0 KT
Gusts --
Visibility 10 SM
Ceiling CLR
Temperature 3° C (37° F)
Dewpoint 2° C (36° F)
Relative Humidity 95%
Density Altitude --
Condensation Altitude --
  Wind and Runways
Indicated Runway = 6
History
 
 
More Info
All DigiWx sites map
 
Johnson County Airport FBO
 
Airport IQ 5010
(M01) General Dewitt Spain Airport
(3M3) Collegedale Muni
 
about DigiWx
 
FAA Disclaimer: The data displayed is for advisory purposes only and is not to be used for flight planning or operations. For official data, please call (not available) to hear the current automated AWOS voice message.
  METAR 6A4 200419Z AUTO 06000KT 10SM CLR 03/02 A3016